createdAt,value
2018-09-04T00:01:06.305Z,13.39
2018-09-04T00:03:35.513Z,13.22
2018-09-04T00:06:04.670Z,13.27
2018-09-04T00:08:33.775Z,13.40
2018-09-04T00:11:02.937Z,13.39
2018-09-04T00:13:32.054Z,13.35
2018-09-04T00:16:05.762Z,13.30
2018-09-04T00:18:34.991Z,13.18
2018-09-04T00:21:04.390Z,13.11
2018-09-04T00:23:33.562Z,13.22
2018-09-04T00:26:05.901Z,13.26
2018-09-04T00:28:35.098Z,13.24
2018-09-04T00:31:04.490Z,13.22
2018-09-04T00:33:33.737Z,13.17
2018-09-04T00:36:02.939Z,13.06
2018-09-04T00:38:32.081Z,13.12
2018-09-04T00:41:01.235Z,13.10
2018-09-04T00:43:30.391Z,13.03
2018-09-04T00:45:59.511Z,12.85
2018-09-04T00:48:28.644Z,12.73
2018-09-04T00:50:57.780Z,12.78
2018-09-04T00:53:27.034Z,12.79
2018-09-04T00:55:56.161Z,12.60
2018-09-04T00:58:25.289Z,12.51
2018-09-04T01:00:54.426Z,12.48
2018-09-04T01:03:23.587Z,12.53
2018-09-04T01:05:52.765Z,12.42
2018-09-04T01:08:22.139Z,12.35
2018-09-04T01:10:51.306Z,12.28
2018-09-04T01:13:20.546Z,12.21
2018-09-04T01:15:49.762Z,12.29
2018-09-04T01:18:19.685Z,12.36
2018-09-04T01:20:48.843Z,12.39
2018-09-04T01:23:18.066Z,12.34
2018-09-04T01:25:47.193Z,12.25
2018-09-04T01:28:16.323Z,12.20
2018-09-04T01:30:45.493Z,12.21
2018-09-04T01:33:14.835Z,12.20
2018-09-04T01:35:44.111Z,12.10
2018-09-04T01:40:49.353Z,12.08
2018-09-04T01:43:18.562Z,12.04
2018-09-04T01:45:47.768Z,11.94
2018-09-04T01:48:16.911Z,11.89
2018-09-04T01:50:46.127Z,11.84
2018-09-04T01:53:15.714Z,11.90
2018-09-04T01:55:44.842Z,11.95
2018-09-04T01:58:14.001Z,11.94
2018-09-04T02:00:43.134Z,11.92
2018-09-04T02:03:12.339Z,11.92
2018-09-04T02:05:41.515Z,11.94
2018-09-04T02:08:10.653Z,12.01
2018-09-04T02:10:39.822Z,11.94
2018-09-04T02:13:09.020Z,11.83
2018-09-04T02:15:38.201Z,11.77
2018-09-04T02:18:07.394Z,11.85
2018-09-04T02:20:36.551Z,11.87
2018-09-04T02:23:05.794Z,11.85
2018-09-04T02:25:34.953Z,11.87
2018-09-04T02:28:04.129Z,11.78
2018-09-04T02:30:33.381Z,11.74
2018-09-04T02:33:02.704Z,11.70
2018-09-04T02:35:31.869Z,11.77
2018-09-04T02:38:01.016Z,11.87
2018-09-04T02:40:30.182Z,11.68
2018-09-04T02:42:59.313Z,11.59
2018-09-04T02:45:28.438Z,11.49
2018-09-04T02:47:57.603Z,11.48
2018-09-04T02:50:26.759Z,11.68
2018-09-04T02:52:55.961Z,11.76
2018-09-04T02:55:25.121Z,11.80
2018-09-04T02:57:54.241Z,11.84
2018-09-04T03:00:24.186Z,11.83
2018-09-04T03:02:53.329Z,11.78
2018-09-04T03:05:22.473Z,11.69
2018-09-04T03:07:52.014Z,11.70
2018-09-04T03:10:21.175Z,11.68
2018-09-04T03:12:50.301Z,11.77
2018-09-04T03:15:19.437Z,11.78
2018-09-04T03:17:49.257Z,11.75
2018-09-04T03:20:19.962Z,11.72
2018-09-04T03:22:49.427Z,11.65
2018-09-04T03:25:18.495Z,11.48
2018-09-04T03:27:47.697Z,11.45
2018-09-04T03:30:16.933Z,11.46
2018-09-04T03:32:46.254Z,11.50
2018-09-04T03:35:16.392Z,11.55
2018-09-04T03:37:46.117Z,11.58
2018-09-04T03:40:15.286Z,11.61
2018-09-04T03:42:44.457Z,11.53
2018-09-04T03:45:13.583Z,11.52
2018-09-04T03:47:42.732Z,11.55
2018-09-04T03:50:11.921Z,11.58
2018-09-04T03:52:41.731Z,11.58
2018-09-04T03:55:10.989Z,11.55
2018-09-04T03:57:40.140Z,11.51
2018-09-04T04:00:09.306Z,11.49
2018-09-04T04:02:38.413Z,11.46
2018-09-04T04:05:07.929Z,11.47
2018-09-04T04:07:37.157Z,11.55
2018-09-04T04:10:06.341Z,11.68
2018-09-04T04:12:39.148Z,11.81
2018-09-04T04:15:08.295Z,11.88
2018-09-04T04:17:37.422Z,11.96
2018-09-04T04:20:06.579Z,12.03
2018-09-04T04:22:35.730Z,12.12
2018-09-04T04:25:04.873Z,12.11
2018-09-04T04:27:34.023Z,12.19
2018-09-04T04:30:03.190Z,12.17
2018-09-04T04:32:32.334Z,12.27
2018-09-04T04:35:02.118Z,12.35
2018-09-04T04:37:31.274Z,12.37
2018-09-04T04:40:00.422Z,12.44
2018-09-04T04:42:29.765Z,12.49
2018-09-04T04:44:58.901Z,12.51
2018-09-04T04:47:33.385Z,12.53
2018-09-04T04:50:03.318Z,12.47
2018-09-04T04:52:33.022Z,12.56
2018-09-04T04:55:02.341Z,12.59
2018-09-04T04:57:32.274Z,12.64
2018-09-04T05:00:01.569Z,12.63
2018-09-04T05:02:30.890Z,12.60
2018-09-04T05:05:00.257Z,12.62
2018-09-04T05:07:30.086Z,12.53
2018-09-04T05:09:58.953Z,12.46
2018-09-04T05:12:28.354Z,12.46
2018-09-04T05:14:57.474Z,12.40
2018-09-04T05:17:26.650Z,12.45
2018-09-04T05:19:55.818Z,12.54
2018-09-04T05:22:25.556Z,12.56
2018-09-04T05:24:54.870Z,12.62
2018-09-04T05:27:24.149Z,12.85
2018-09-04T05:29:53.482Z,13.01
2018-09-04T05:34:29.966Z,13.12
2018-09-04T05:36:59.122Z,13.19
2018-09-04T05:39:28.237Z,13.28
2018-09-04T05:42:01.450Z,13.23
2018-09-04T05:44:31.081Z,13.25
2018-09-04T05:47:00.209Z,13.21
2018-09-04T05:49:32.719Z,13.18
2018-09-04T05:52:02.431Z,13.17
2018-09-04T05:54:31.585Z,13.22
2018-09-04T05:57:01.513Z,13.30
2018-09-04T05:59:30.611Z,13.44
2018-09-04T06:01:59.716Z,13.58
2018-09-04T06:04:29.571Z,13.61
2018-09-04T06:06:58.682Z,13.83
2018-09-04T06:09:27.825Z,13.94
2018-09-04T06:11:56.967Z,13.98
2018-09-04T06:14:26.130Z,14.20
2018-09-04T06:16:55.268Z,14.30
2018-09-04T06:19:24.414Z,14.67
2018-09-04T06:21:53.562Z,14.79
2018-09-04T06:24:22.698Z,14.86
2018-09-04T06:26:51.835Z,14.96
2018-09-04T06:29:21.095Z,15.06
2018-09-04T06:31:50.190Z,15.11
2018-09-04T06:34:19.341Z,15.12
2018-09-04T06:36:48.579Z,15.28
2018-09-04T06:39:17.615Z,15.27
2018-09-04T06:41:46.737Z,15.33
2018-09-04T06:44:15.906Z,15.38
2018-09-04T06:46:45.043Z,15.48
2018-09-04T06:49:14.152Z,15.65
2018-09-04T06:51:43.268Z,15.69
2018-09-04T06:54:13.254Z,15.75
2018-09-04T06:56:42.922Z,16.07
2018-09-04T06:59:12.143Z,16.18
2018-09-04T07:01:41.635Z,16.35
2018-09-04T07:04:10.774Z,16.13
2018-09-04T07:06:39.950Z,16.47
2018-09-04T07:09:11.747Z,16.48
2018-09-04T07:11:41.265Z,16.26
2018-09-04T07:14:10.424Z,16.63
2018-09-04T07:16:40.085Z,17.11
2018-09-04T07:19:09.510Z,17.37
2018-09-04T07:21:38.659Z,17.88
2018-09-04T07:24:07.773Z,18.33
2018-09-04T07:26:36.931Z,18.73
2018-09-04T07:29:06.114Z,19.18
2018-09-04T07:31:35.246Z,19.49
2018-09-04T07:34:04.365Z,19.97
2018-09-04T07:36:33.537Z,20.04
2018-09-04T07:39:04.012Z,19.57
2018-09-04T07:41:33.167Z,19.77
2018-09-04T07:44:02.298Z,20.36
2018-09-04T07:46:31.518Z,20.80
2018-09-04T07:49:00.631Z,21.41
2018-09-04T07:51:29.915Z,21.64
2018-09-04T07:53:59.162Z,22.18
2018-09-04T07:56:28.343Z,21.23
2018-09-04T07:58:57.521Z,20.99
2018-09-04T08:01:26.929Z,21.54
2018-09-04T08:03:56.554Z,21.84
2018-09-04T08:06:25.826Z,22.86
2018-09-04T08:08:55.097Z,23.22
2018-09-04T08:11:24.345Z,23.78
2018-09-04T08:13:53.481Z,25.07
2018-09-04T08:16:22.800Z,24.46
2018-09-04T08:18:51.885Z,25.35
2018-09-04T08:21:21.005Z,25.72
2018-09-04T08:23:50.293Z,25.51
2018-09-04T08:26:19.427Z,25.01
2018-09-04T08:28:48.542Z,24.30
2018-09-04T08:31:17.662Z,23.73
2018-09-04T08:33:46.793Z,24.39
2018-09-04T08:36:15.920Z,24.26
2018-09-04T08:38:49.088Z,24.06
2018-09-04T08:41:18.444Z,23.88
2018-09-04T08:43:48.086Z,25.45
2018-09-04T08:46:17.575Z,28.78
2018-09-04T08:48:46.765Z,30.60
2018-09-04T08:51:15.909Z,32.35
2018-09-04T08:53:45.182Z,32.86
2018-09-04T08:56:14.318Z,32.62
2018-09-04T08:58:43.537Z,33.46
2018-09-04T09:01:12.622Z,33.79
2018-09-04T09:03:41.784Z,34.57
2018-09-04T09:06:10.869Z,34.70
2018-09-04T09:08:40.042Z,34.06
2018-09-04T09:11:09.180Z,33.26
2018-09-04T09:13:38.310Z,33.81
2018-09-04T09:16:07.608Z,35.50
2018-09-04T09:18:36.688Z,35.48
2018-09-04T09:21:12.513Z,32.02
2018-09-04T09:23:41.690Z,32.66
2018-09-04T09:26:10.818Z,36.45
2018-09-04T09:28:39.981Z,37.13
2018-09-04T09:31:09.126Z,35.73
2018-09-04T09:33:38.243Z,34.13
2018-09-04T09:36:07.376Z,32.86
2018-09-04T09:38:36.690Z,32.85
2018-09-04T09:41:06.049Z,29.92
2018-09-04T09:43:35.197Z,32.54
2018-09-04T09:46:04.351Z,34.33
2018-09-04T09:48:38.657Z,36.10
2018-09-04T09:51:07.970Z,33.09
2018-09-04T09:53:37.330Z,29.97
2018-09-04T09:56:06.844Z,29.04
2018-09-04T09:58:35.968Z,26.69
2018-09-04T10:01:11.560Z,28.19
2018-09-04T10:04:14.905Z,31.69
2018-09-04T10:06:43.969Z,32.16
2018-09-04T10:09:13.110Z,32.87
2018-09-04T10:11:42.234Z,33.33
2018-09-04T10:14:11.407Z,29.77
2018-09-04T10:16:40.618Z,29.34
2018-09-04T10:19:09.971Z,29.61
2018-09-04T10:21:45.826Z,32.41
2018-09-04T10:24:14.949Z,33.90
2018-09-04T10:26:44.093Z,32.54
2018-09-04T10:29:13.249Z,31.66
2018-09-04T10:31:42.407Z,32.28
2018-09-04T10:34:14.448Z,33.20
2018-09-04T10:36:44.014Z,32.91
2018-09-04T10:39:18.340Z,32.28
2018-09-04T10:41:47.471Z,29.75
2018-09-04T10:44:16.645Z,30.56
2018-09-04T10:46:45.738Z,30.89
2018-09-04T10:49:14.851Z,29.91
2018-09-04T10:51:44.026Z,29.63
2018-09-04T10:54:13.194Z,28.90
2018-09-04T10:56:42.303Z,27.99
2018-09-04T10:59:11.426Z,27.35
2018-09-04T11:01:40.967Z,27.03
2018-09-04T11:04:10.126Z,28.31
2018-09-04T11:06:39.252Z,27.48
2018-09-04T11:09:10.694Z,27.80
2018-09-04T11:11:41.791Z,28.48
2018-09-04T11:14:11.245Z,28.15
2018-09-04T11:16:40.383Z,28.67
2018-09-04T11:19:09.466Z,27.97
2018-09-04T11:21:38.686Z,27.71
2018-09-04T11:24:07.913Z,27.13
2018-09-04T11:26:37.546Z,28.28
2018-09-04T11:29:09.095Z,27.65
2018-09-04T11:31:38.338Z,29.20
2018-09-04T11:34:08.345Z,30.64
2018-09-04T11:36:37.540Z,29.73
2018-09-04T11:39:09.859Z,27.84
2018-09-04T11:41:39.587Z,25.33
2018-09-04T11:44:14.898Z,25.15
2018-09-04T11:46:44.206Z,26.49
2018-09-04T11:49:13.445Z,25.75
2018-09-04T11:51:42.626Z,26.51
2018-09-04T11:54:11.746Z,26.75
2018-09-04T11:56:41.419Z,26.93
2018-09-04T11:59:11.274Z,26.51
2018-09-04T12:01:43.913Z,27.87
2018-09-04T12:04:13.581Z,29.25
2018-09-04T12:06:42.780Z,30.30
2018-09-04T12:09:11.893Z,30.50
2018-09-04T12:11:41.022Z,32.70
2018-09-04T12:14:10.182Z,32.47
2018-09-04T12:16:39.347Z,31.45
2018-09-04T12:19:08.481Z,29.05
2018-09-04T12:21:37.598Z,27.78
2018-09-04T12:24:06.332Z,26.55
2018-09-04T12:26:35.448Z,27.22
2018-09-04T12:29:04.613Z,26.57
2018-09-04T12:31:33.867Z,26.53
2018-09-04T12:34:03.042Z,27.56
2018-09-04T12:36:32.170Z,28.25
2018-09-04T12:39:01.349Z,28.02
2018-09-04T12:41:30.537Z,27.29
2018-09-04T12:43:59.765Z,26.76
2018-09-04T12:46:31.339Z,27.87
2018-09-04T12:49:00.537Z,27.37
2018-09-04T12:51:29.721Z,28.53
2018-09-04T12:53:58.809Z,28.07
2018-09-04T12:56:28.002Z,28.27
2018-09-04T12:58:57.186Z,29.09
2018-09-04T13:01:26.347Z,29.91
2018-09-04T13:03:55.491Z,30.11
2018-09-04T13:06:24.615Z,29.04
2018-09-04T13:08:54.514Z,29.23
2018-09-04T13:11:23.614Z,30.05
2018-09-04T13:13:52.917Z,31.97
2018-09-04T13:16:22.042Z,34.53
2018-09-04T13:18:51.214Z,36.15
2018-09-04T13:21:22.696Z,36.22
2018-09-04T13:23:51.857Z,33.91
2018-09-04T13:26:21.142Z,35.32
2018-09-04T13:28:50.371Z,35.93
2018-09-04T13:31:19.594Z,35.74
2018-09-04T13:33:48.854Z,35.82
2018-09-04T13:36:18.061Z,36.03
2018-09-04T13:38:47.266Z,36.53
2018-09-04T13:41:16.817Z,34.47
2018-09-04T13:43:46.613Z,34.43
2018-09-04T13:46:15.825Z,32.79
2018-09-04T13:48:45.722Z,32.59
2018-09-04T13:51:15.641Z,35.90
2018-09-04T13:53:44.733Z,37.71
2018-09-04T13:56:13.847Z,37.26
2018-09-04T13:58:43.002Z,37.71
2018-09-04T14:01:12.124Z,38.58
2018-09-04T14:03:41.247Z,35.53
2018-09-04T14:06:11.034Z,38.10
2018-09-04T14:08:40.186Z,40.31
2018-09-04T14:11:09.345Z,39.60
2018-09-04T14:13:38.442Z,36.77
2018-09-04T14:16:09.397Z,35.16
2018-09-04T14:18:38.533Z,35.60
2018-09-04T14:21:07.870Z,35.02
2018-09-04T14:23:36.974Z,33.49
2018-09-04T14:26:06.434Z,34.03
2018-09-04T14:28:42.718Z,33.89
2018-09-04T14:31:05.038Z,33.78
2018-09-04T14:33:34.228Z,30.69
2018-09-04T14:36:03.432Z,29.31
2018-09-04T14:38:32.545Z,29.65
2018-09-04T14:41:01.749Z,29.60
2018-09-04T14:43:30.887Z,29.19
2018-09-04T14:46:00.001Z,29.35
2018-09-04T14:48:29.152Z,28.88
2018-09-04T14:50:58.272Z,28.22
2018-09-04T14:53:27.487Z,27.17
2018-09-04T14:55:57.026Z,26.58
2018-09-04T14:58:26.160Z,26.33
2018-09-04T15:00:55.322Z,26.02
2018-09-04T15:03:24.711Z,25.97
2018-09-04T15:05:53.837Z,26.25
2018-09-04T15:08:23.209Z,29.23
2018-09-04T15:10:52.366Z,31.93
2018-09-04T15:13:21.490Z,33.16
2018-09-04T15:15:50.648Z,32.34
2018-09-04T15:18:21.121Z,32.37
2018-09-04T15:20:50.239Z,33.54
2018-09-04T15:23:48.757Z,34.43
2018-09-04T15:26:17.890Z,33.81
2018-09-04T15:28:47.045Z,34.75
2018-09-04T15:31:16.237Z,34.91
2018-09-04T15:33:45.362Z,35.55
2018-09-04T15:36:14.721Z,35.12
2018-09-04T15:38:43.850Z,32.20
2018-09-04T15:41:12.962Z,32.55
2018-09-04T15:43:42.138Z,32.98
2018-09-04T15:46:11.621Z,32.83
2018-09-04T15:48:40.761Z,33.11
2018-09-04T15:51:10.765Z,32.86
2018-09-04T15:53:39.886Z,32.87
2018-09-04T15:56:09.022Z,31.69
2018-09-04T15:58:38.134Z,31.56
2018-09-04T16:01:07.380Z,31.73
2018-09-04T16:03:36.537Z,31.49
2018-09-04T16:06:05.703Z,30.82
2018-09-04T16:08:35.127Z,30.90
2018-09-04T16:11:04.276Z,30.27
2018-09-04T16:13:33.402Z,31.21
2018-09-04T16:16:02.584Z,30.56
2018-09-04T16:18:32.450Z,30.18
2018-09-04T16:21:01.566Z,29.57
2018-09-04T16:23:30.681Z,29.59
2018-09-04T16:26:00.590Z,29.45
2018-09-04T16:28:29.781Z,28.59
2018-09-04T16:30:58.925Z,28.02
2018-09-04T16:33:28.394Z,28.01
2018-09-04T16:35:57.518Z,27.69
2018-09-04T16:38:26.687Z,27.92
2018-09-04T16:40:55.846Z,27.28
2018-09-04T16:43:24.973Z,26.89
2018-09-04T16:45:54.129Z,26.70
2018-09-04T16:48:23.271Z,26.20
2018-09-04T16:50:52.390Z,25.76
2018-09-04T16:53:21.554Z,25.26
2018-09-04T16:55:54.442Z,24.95
2018-09-04T16:58:24.296Z,24.78
2018-09-04T17:00:52.981Z,24.55
2018-09-04T17:03:22.754Z,24.17
2018-09-04T17:05:52.382Z,23.97
2018-09-04T17:08:21.501Z,23.87
2018-09-04T17:10:50.643Z,23.62
2018-09-04T17:13:19.789Z,23.41
2018-09-04T17:15:54.786Z,23.16
2018-09-04T17:18:24.141Z,22.99
2018-09-04T17:20:54.573Z,22.87
2018-09-04T17:23:23.813Z,22.73
2018-09-04T17:25:52.973Z,22.58
2018-09-04T17:28:22.101Z,22.45
2018-09-04T17:30:51.234Z,22.37
2018-09-04T17:33:20.443Z,22.19
2018-09-04T17:35:49.658Z,22.12
2018-09-04T17:38:18.853Z,22.03
2018-09-04T17:40:47.942Z,22.03
2018-09-04T17:43:17.250Z,21.93
2018-09-04T17:45:46.405Z,21.93
2018-09-04T17:48:15.523Z,21.81
2018-09-04T17:50:44.668Z,21.64
2018-09-04T17:53:13.800Z,21.48
2018-09-04T17:55:42.949Z,21.36
2018-09-04T17:58:12.085Z,21.25
2018-09-04T18:00:41.742Z,21.14
2018-09-04T18:03:10.801Z,21.16
2018-09-04T18:05:40.321Z,21.08
2018-09-04T18:08:10.659Z,21.06
2018-09-04T18:10:40.663Z,21.02
2018-09-04T18:13:09.767Z,20.97
2018-09-04T18:15:40.345Z,20.92
2018-09-04T18:18:11.173Z,20.94
2018-09-04T18:20:40.331Z,20.80
2018-09-04T18:23:11.038Z,20.48
2018-09-04T18:25:40.470Z,20.31
2018-09-04T18:28:09.590Z,20.28
2018-09-04T18:30:39.081Z,20.04
2018-09-04T18:33:09.671Z,19.84
2018-09-04T18:35:38.794Z,19.72
2018-09-04T18:38:09.045Z,19.54
2018-09-04T18:40:38.305Z,19.48
2018-09-04T18:43:07.424Z,19.35
2018-09-04T18:45:48.701Z,19.32
2018-09-04T18:48:18.186Z,19.37
2018-09-04T18:50:47.338Z,19.37
2018-09-04T18:53:16.582Z,19.37
2018-09-04T18:55:45.706Z,19.40
2018-09-04T18:58:15.377Z,19.38
2018-09-04T19:00:44.829Z,19.46
2018-09-04T19:03:15.174Z,19.59
2018-09-04T19:05:50.179Z,19.66
2018-09-04T19:08:24.438Z,19.70
2018-09-04T19:10:55.032Z,19.79
2018-09-04T19:13:24.154Z,19.82
2018-09-04T19:15:53.303Z,19.80
2018-09-04T19:18:23.385Z,19.75
2018-09-04T19:20:52.562Z,19.59
2018-09-04T19:23:21.710Z,19.61
2018-09-04T19:25:50.842Z,19.48
2018-09-04T19:28:19.953Z,19.24
2018-09-04T19:30:49.106Z,19.21
2018-09-04T19:36:19.001Z,18.88
2018-09-04T19:38:49.149Z,18.84
2018-09-04T19:41:18.314Z,18.68
2018-09-04T19:46:27.218Z,18.35
2018-09-04T19:48:56.427Z,18.16
2018-09-04T19:51:25.579Z,18.20
2018-09-04T19:53:57.753Z,18.17
2018-09-04T19:56:27.854Z,17.96
2018-09-04T19:58:57.031Z,17.76
2018-09-04T20:01:26.154Z,17.60
2018-09-04T20:04:01.534Z,17.58
2018-09-04T20:06:31.804Z,17.59
2018-09-04T20:09:01.137Z,17.63
2018-09-04T20:11:29.980Z,17.54
2018-09-04T20:13:59.131Z,17.42
2018-09-04T20:16:28.266Z,17.25
2018-09-04T20:18:57.401Z,17.09
2018-09-04T20:21:26.507Z,17.10
2018-09-04T20:23:55.669Z,17.05
2018-09-04T20:26:24.827Z,16.96
2018-09-04T20:28:54.006Z,16.83
2018-09-04T20:31:23.608Z,16.73
2018-09-04T20:33:53.632Z,16.80
2018-09-04T20:36:22.866Z,16.90
2018-09-04T20:38:52.690Z,16.95
2018-09-04T20:41:21.888Z,16.90
2018-09-04T20:43:51.633Z,17.02
2018-09-04T20:46:20.818Z,17.13
2018-09-04T20:48:50.010Z,17.19
2018-09-04T20:51:22.096Z,17.32
2018-09-04T20:53:51.262Z,17.21
2018-09-04T20:56:20.443Z,17.13
2018-09-04T20:59:06.495Z,17.00
2018-09-04T21:01:52.718Z,16.87
2018-09-04T21:04:33.466Z,16.82
2018-09-04T21:09:42.681Z,16.65
2018-09-04T21:12:11.807Z,16.56
2018-09-04T21:14:41.758Z,16.52
2018-09-04T21:17:10.895Z,16.44
2018-09-04T21:19:40.025Z,16.51
2018-09-04T21:22:09.170Z,16.35
2018-09-04T21:24:38.413Z,16.17
2018-09-04T21:27:07.554Z,16.10
2018-09-04T21:29:37.134Z,15.97
2018-09-04T21:32:06.348Z,16.02
2018-09-04T21:34:35.499Z,16.06
2018-09-04T21:37:04.777Z,16.08
2018-09-04T21:39:33.924Z,16.08
2018-09-04T21:42:03.062Z,15.93
2018-09-04T21:44:32.214Z,15.92
2018-09-04T21:47:01.333Z,15.88
2018-09-04T21:49:30.442Z,15.83
2018-09-04T21:51:59.634Z,15.72
2018-09-04T21:54:28.758Z,15.80
2018-09-04T21:56:57.885Z,15.90
2018-09-04T21:59:27.274Z,15.90
2018-09-04T22:01:56.617Z,15.82
2018-09-04T22:04:25.774Z,15.73
2018-09-04T22:06:55.002Z,15.59
2018-09-04T22:09:24.142Z,15.49
2018-09-04T22:11:53.350Z,15.49
2018-09-04T22:14:23.278Z,15.59
2018-09-04T22:16:52.403Z,15.45
2018-09-04T22:19:21.098Z,15.29
2018-09-04T22:21:50.422Z,15.24
2018-09-04T22:24:19.546Z,15.22
2018-09-04T22:26:48.716Z,15.17
2018-09-04T22:29:17.893Z,15.21
2018-09-04T22:31:47.021Z,15.30
2018-09-04T22:34:16.158Z,15.23
2018-09-04T22:36:45.441Z,15.11
2018-09-04T22:39:14.584Z,15.05
2018-09-04T22:41:43.698Z,15.24
2018-09-04T22:44:13.242Z,15.28
2018-09-04T22:46:42.387Z,15.23
2018-09-04T22:49:11.501Z,15.17
2018-09-04T22:51:41.039Z,15.07
2018-09-04T22:54:10.186Z,15.10
2018-09-04T22:56:39.617Z,15.10
2018-09-04T22:59:08.758Z,15.07
2018-09-04T23:01:38.068Z,15.10
2018-09-04T23:04:07.271Z,15.13
2018-09-04T23:06:36.527Z,15.00
2018-09-04T23:09:08.187Z,15.06
2018-09-04T23:11:37.326Z,15.05
2018-09-04T23:14:06.469Z,14.97
2018-09-04T23:16:35.637Z,14.93
2018-09-04T23:19:05.007Z,14.94
2018-09-04T23:21:34.133Z,14.96
2018-09-04T23:24:03.271Z,14.95
2018-09-04T23:26:32.985Z,14.87
2018-09-04T23:29:02.162Z,14.73
2018-09-04T23:31:31.329Z,14.74
2018-09-04T23:34:00.453Z,14.72
2018-09-04T23:36:29.662Z,14.62
2018-09-04T23:38:58.833Z,14.67
2018-09-04T23:41:27.963Z,14.77
2018-09-04T23:43:57.509Z,14.71
2018-09-04T23:46:26.650Z,14.66
2018-09-04T23:48:56.602Z,14.58
2018-09-04T23:51:25.714Z,14.73
2018-09-04T23:53:55.955Z,14.67
2018-09-04T23:56:25.074Z,14.63
2018-09-04T23:58:54.224Z,14.56
